sensor_id;sensor_type;location;lat;lon;timestamp;pressure;altitude;pressure_sealevel;temperature;humidity
34073;BME280;20346;52.702;16.886;2022-07-22T00:01:20;100965.64;;;25.48;43.54
34073;BME280;20346;52.702;16.886;2022-07-22T00:03:46;100968.06;;;25.46;43.62
34073;BME280;20346;52.702;16.886;2022-07-22T00:06:14;100979.46;;;25.40;43.78
34073;BME280;20346;52.702;16.886;2022-07-22T00:08:40;100972.06;;;25.33;43.88
34073;BME280;20346;52.702;16.886;2022-07-22T00:11:07;100983.21;;;25.44;43.96
34073;BME280;20346;52.702;16.886;2022-07-22T00:13:35;100981.30;;;25.46;44.04
34073;BME280;20346;52.702;16.886;2022-07-22T00:16:01;100990.31;;;25.43;44.19
34073;BME280;20346;52.702;16.886;2022-07-22T00:18:28;100996.67;;;25.40;44.23
34073;BME280;20346;52.702;16.886;2022-07-22T00:20:55;100997.00;;;25.36;44.40
34073;BME280;20346;52.702;16.886;2022-07-22T00:23:21;101007.66;;;25.29;44.56
34073;BME280;20346;52.702;16.886;2022-07-22T00:25:48;101014.38;;;25.27;44.65
34073;BME280;20346;52.702;16.886;2022-07-22T00:28:14;101015.81;;;25.26;44.76
34073;BME280;20346;52.702;16.886;2022-07-22T00:30:40;101009.67;;;25.25;44.88
34073;BME280;20346;52.702;16.886;2022-07-22T00:33:12;101003.91;;;25.26;44.96
34073;BME280;20346;52.702;16.886;2022-07-22T00:35:38;101006.51;;;25.20;45.11
34073;BME280;20346;52.702;16.886;2022-07-22T00:38:05;101011.28;;;25.15;45.26
34073;BME280;20346;52.702;16.886;2022-07-22T00:40:31;101014.73;;;25.10;45.37
34073;BME280;20346;52.702;16.886;2022-07-22T00:42:57;101012.41;;;25.05;45.50
34073;BME280;20346;52.702;16.886;2022-07-22T00:45:25;101004.57;;;25.04;45.67
34073;BME280;20346;52.702;16.886;2022-07-22T00:47:51;101007.59;;;25.05;45.80
34073;BME280;20346;52.702;16.886;2022-07-22T00:50:19;101007.11;;;25.05;45.81
34073;BME280;20346;52.702;16.886;2022-07-22T00:52:47;101011.40;;;25.01;45.98
34073;BME280;20346;52.702;16.886;2022-07-22T00:55:13;101008.12;;;24.97;46.16
34073;BME280;20346;52.702;16.886;2022-07-22T00:57:40;101006.06;;;24.95;46.40
34073;BME280;20346;52.702;16.886;2022-07-22T01:00:11;101014.69;;;24.92;46.23
34073;BME280;20346;52.702;16.886;2022-07-22T01:02:39;101020.93;;;24.91;46.37
34073;BME280;20346;52.702;16.886;2022-07-22T01:05:06;101028.60;;;24.88;46.53
34073;BME280;20346;52.702;16.886;2022-07-22T01:07:32;101034.37;;;24.88;46.67
34073;BME280;20346;52.702;16.886;2022-07-22T01:09:59;101042.89;;;24.86;46.80
34073;BME280;20346;52.702;16.886;2022-07-22T01:12:25;101055.84;;;24.83;46.67
34073;BME280;20346;52.702;16.886;2022-07-22T01:14:52;101049.81;;;24.81;47.04
34073;BME280;20346;52.702;16.886;2022-07-22T01:17:18;101052.73;;;24.84;47.14
34073;BME280;20346;52.702;16.886;2022-07-22T01:19:45;101051.77;;;24.85;47.23
34073;BME280;20346;52.702;16.886;2022-07-22T01:22:11;101039.88;;;24.85;47.28
34073;BME280;20346;52.702;16.886;2022-07-22T01:24:37;101025.16;;;24.81;47.52
34073;BME280;20346;52.702;16.886;2022-07-22T01:27:03;101016.69;;;24.75;47.39
34073;BME280;20346;52.702;16.886;2022-07-22T01:29:30;101015.38;;;24.75;47.51
34073;BME280;20346;52.702;16.886;2022-07-22T01:31:56;101011.41;;;24.75;47.57
34073;BME280;20346;52.702;16.886;2022-07-22T01:34:23;100996.59;;;24.73;47.66
34073;BME280;20346;52.702;16.886;2022-07-22T01:36:49;100964.33;;;24.55;47.78
34073;BME280;20346;52.702;16.886;2022-07-22T01:39:15;101005.31;;;24.68;47.87
34073;BME280;20346;52.702;16.886;2022-07-22T01:41:43;100989.66;;;24.65;47.95
34073;BME280;20346;52.702;16.886;2022-07-22T01:44:09;100997.33;;;24.62;48.09
34073;BME280;20346;52.702;16.886;2022-07-22T01:46:36;101020.28;;;24.62;48.20
34073;BME280;20346;52.702;16.886;2022-07-22T01:49:03;101008.96;;;24.60;48.32
34073;BME280;20346;52.702;16.886;2022-07-22T01:51:29;100997.53;;;24.59;48.39
34073;BME280;20346;52.702;16.886;2022-07-22T01:53:56;100981.72;;;24.52;48.57
34073;BME280;20346;52.702;16.886;2022-07-22T01:56:22;100982.13;;;24.46;48.72
34073;BME280;20346;52.702;16.886;2022-07-22T01:58:48;100985.50;;;24.43;48.83
34073;BME280;20346;52.702;16.886;2022-07-22T02:01:14;100979.56;;;24.39;49.04
34073;BME280;20346;52.702;16.886;2022-07-22T02:03:44;100972.80;;;24.35;49.15
34073;BME280;20346;52.702;16.886;2022-07-22T02:06:10;100962.06;;;24.31;49.30
34073;BME280;20346;52.702;16.886;2022-07-22T02:08:36;100978.87;;;24.30;49.41
34073;BME280;20346;52.702;16.886;2022-07-22T02:11:02;100975.01;;;24.28;49.54
34073;BME280;20346;52.702;16.886;2022-07-22T02:13:28;100967.35;;;24.24;49.63
34073;BME280;20346;52.702;16.886;2022-07-22T02:15:54;100963.13;;;24.21;49.76
34073;BME280;20346;52.702;16.886;2022-07-22T02:18:20;100953.13;;;24.19;49.83
34073;BME280;20346;52.702;16.886;2022-07-22T02:20:47;100959.56;;;24.15;49.92
34073;BME280;20346;52.702;16.886;2022-07-22T02:23:13;100960.98;;;24.14;50.10
34073;BME280;20346;52.702;16.886;2022-07-22T02:25:40;100958.72;;;24.15;50.20
34073;BME280;20346;52.702;16.886;2022-07-22T02:28:09;100963.53;;;24.15;50.29
34073;BME280;20346;52.702;16.886;2022-07-22T02:30:35;100961.73;;;24.16;50.36
34073;BME280;20346;52.702;16.886;2022-07-22T02:33:01;100971.29;;;24.11;50.46
34073;BME280;20346;52.702;16.886;2022-07-22T02:35:28;100986.30;;;24.10;50.58
34073;BME280;20346;52.702;16.886;2022-07-22T02:37:54;100989.14;;;24.07;50.72
34073;BME280;20346;52.702;16.886;2022-07-22T02:40:20;100984.80;;;24.06;50.83
34073;BME280;20346;52.702;16.886;2022-07-22T02:42:46;100988.67;;;24.08;50.88
34073;BME280;20346;52.702;16.886;2022-07-22T02:45:12;101001.98;;;24.06;50.96
34073;BME280;20346;52.702;16.886;2022-07-22T02:47:50;101020.09;;;24.05;51.07
34073;BME280;20346;52.702;16.886;2022-07-22T02:50:18;101043.98;;;24.04;51.17
34073;BME280;20346;52.702;16.886;2022-07-22T02:52:44;101064.37;;;24.02;51.27
34073;BME280;20346;52.702;16.886;2022-07-22T02:55:11;101063.80;;;24.04;51.35
34073;BME280;20346;52.702;16.886;2022-07-22T02:57:51;101050.21;;;24.03;51.39
34073;BME280;20346;52.702;16.886;2022-07-22T03:00:18;101036.73;;;24.00;51.53
34073;BME280;20346;52.702;16.886;2022-07-22T03:02:44;101035.03;;;23.99;51.63
34073;BME280;20346;52.702;16.886;2022-07-22T03:05:10;101045.33;;;23.97;51.83
34073;BME280;20346;52.702;16.886;2022-07-22T03:07:38;101044.85;;;23.97;52.04
34073;BME280;20346;52.702;16.886;2022-07-22T03:10:05;101036.28;;;23.94;52.30
34073;BME280;20346;52.702;16.886;2022-07-22T03:12:31;101024.72;;;23.89;52.46
34073;BME280;20346;52.702;16.886;2022-07-22T03:14:57;101012.28;;;23.84;52.59
34073;BME280;20346;52.702;16.886;2022-07-22T03:17:23;101005.98;;;23.80;52.75
34073;BME280;20346;52.702;16.886;2022-07-22T03:19:54;101021.38;;;23.73;52.81
34073;BME280;20346;52.702;16.886;2022-07-22T03:22:20;101040.54;;;23.62;53.08
34073;BME280;20346;52.702;16.886;2022-07-22T03:24:47;101031.02;;;23.60;53.28
34073;BME280;20346;52.702;16.886;2022-07-22T03:27:13;101026.69;;;23.59;53.32
34073;BME280;20346;52.702;16.886;2022-07-22T03:29:39;101026.13;;;23.54;53.49
34073;BME280;20346;52.702;16.886;2022-07-22T03:32:09;101010.84;;;23.44;53.63
34073;BME280;20346;52.702;16.886;2022-07-22T03:34:35;101000.09;;;23.40;53.77
34073;BME280;20346;52.702;16.886;2022-07-22T03:37:01;100987.60;;;23.37;53.89
34073;BME280;20346;52.702;16.886;2022-07-22T03:39:27;100982.61;;;23.32;53.97
34073;BME280;20346;52.702;16.886;2022-07-22T03:41:53;100974.80;;;23.24;54.18
34073;BME280;20346;52.702;16.886;2022-07-22T03:44:20;100972.55;;;23.18;54.37
34073;BME280;20346;52.702;16.886;2022-07-22T03:46:46;100974.53;;;23.14;54.52
34073;BME280;20346;52.702;16.886;2022-07-22T03:49:12;100977.55;;;23.15;54.74
34073;BME280;20346;52.702;16.886;2022-07-22T03:51:39;100988.20;;;23.14;54.81
34073;BME280;20346;52.702;16.886;2022-07-22T03:54:06;101012.98;;;23.11;54.97
34073;BME280;20346;52.702;16.886;2022-07-22T03:56:33;101023.34;;;23.14;55.48
34073;BME280;20346;52.702;16.886;2022-07-22T03:59:05;101025.41;;;23.16;55.05
34073;BME280;20346;52.702;16.886;2022-07-22T04:01:31;101029.94;;;23.14;55.19
34073;BME280;20346;52.702;16.886;2022-07-22T04:03:57;101035.49;;;23.17;55.32
34073;BME280;20346;52.702;16.886;2022-07-22T04:06:25;101041.43;;;23.20;55.40
34073;BME280;20346;52.702;16.886;2022-07-22T04:08:51;101037.75;;;23.23;55.50
34073;BME280;20346;52.702;16.886;2022-07-22T04:11:17;101034.92;;;23.19;55.58
34073;BME280;20346;52.702;16.886;2022-07-22T04:13:43;101030.69;;;23.16;55.71
34073;BME280;20346;52.702;16.886;2022-07-22T04:16:09;101032.01;;;23.16;55.75
34073;BME280;20346;52.702;16.886;2022-07-22T04:18:35;101025.88;;;23.16;55.90
34073;BME280;20346;52.702;16.886;2022-07-22T04:21:02;101016.17;;;23.16;56.00
34073;BME280;20346;52.702;16.886;2022-07-22T04:23:28;101021.27;;;23.12;56.09
34073;BME280;20346;52.702;16.886;2022-07-22T04:25:54;101021.83;;;23.10;56.28
34073;BME280;20346;52.702;16.886;2022-07-22T04:28:21;101011.19;;;23.11;56.30
34073;BME280;20346;52.702;16.886;2022-07-22T04:30:47;101002.80;;;23.05;56.49
34073;BME280;20346;52.702;16.886;2022-07-22T04:33:13;101004.59;;;23.04;56.65
34073;BME280;20346;52.702;16.886;2022-07-22T04:35:40;101016.17;;;23.09;56.72
34073;BME280;20346;52.702;16.886;2022-07-22T04:38:06;101012.78;;;23.14;56.83
34073;BME280;20346;52.702;16.886;2022-07-22T04:40:32;101012.78;;;23.14;56.83
34073;BME280;20346;52.702;16.886;2022-07-22T04:43:01;101011.38;;;23.16;56.91
34073;BME280;20346;52.702;16.886;2022-07-22T04:45:27;101016.84;;;23.20;57.08
34073;BME280;20346;52.702;16.886;2022-07-22T04:47:53;101023.15;;;23.24;57.13
34073;BME280;20346;52.702;16.886;2022-07-22T04:50:27;101027.39;;;23.27;57.24
34073;BME280;20346;52.702;16.886;2022-07-22T04:52:53;101032.00;;;23.30;57.34
34073;BME280;20346;52.702;16.886;2022-07-22T04:55:20;101031.34;;;23.34;57.39
34073;BME280;20346;52.702;16.886;2022-07-22T04:57:47;101033.78;;;23.37;57.47
34073;BME280;20346;52.702;16.886;2022-07-22T05:00:15;101032.75;;;23.39;57.56
34073;BME280;20346;52.702;16.886;2022-07-22T05:02:43;101033.94;;;23.41;57.73
34073;BME280;20346;52.702;16.886;2022-07-22T05:05:09;101039.03;;;23.44;57.86
34073;BME280;20346;52.702;16.886;2022-07-22T05:07:35;101039.20;;;23.48;58.02
34073;BME280;20346;52.702;16.886;2022-07-22T05:10:04;101033.19;;;23.60;58.12
34073;BME280;20346;52.702;16.886;2022-07-22T05:12:31;101042.03;;;23.73;58.25
34073;BME280;20346;52.702;16.886;2022-07-22T05:14:57;101047.55;;;23.90;58.36
34073;BME280;20346;52.702;16.886;2022-07-22T05:17:25;101052.59;;;24.20;58.47
34073;BME280;20346;52.702;16.886;2022-07-22T05:19:51;101056.66;;;24.58;58.54
34073;BME280;20346;52.702;16.886;2022-07-22T05:22:17;101056.38;;;25.01;58.47
34073;BME280;20346;52.702;16.886;2022-07-22T05:24:43;101051.21;;;25.43;58.46
34073;BME280;20346;52.702;16.886;2022-07-22T05:27:09;101058.36;;;25.85;58.42
34073;BME280;20346;52.702;16.886;2022-07-22T05:29:35;101059.88;;;26.29;58.40
34073;BME280;20346;52.702;16.886;2022-07-22T05:32:01;101060.98;;;26.73;58.32
34073;BME280;20346;52.702;16.886;2022-07-22T05:34:27;101057.91;;;27.18;58.21
34073;BME280;20346;52.702;16.886;2022-07-22T05:36:53;101062.73;;;27.47;58.03
34073;BME280;20346;52.702;16.886;2022-07-22T05:39:19;101055.68;;;27.79;57.99
34073;BME280;20346;52.702;16.886;2022-07-22T05:41:45;101056.28;;;28.09;57.86
34073;BME280;20346;52.702;16.886;2022-07-22T05:44:11;101067.67;;;28.43;57.69
34073;BME280;20346;52.702;16.886;2022-07-22T05:46:38;101072.09;;;28.69;57.62
34073;BME280;20346;52.702;16.886;2022-07-22T05:49:04;101073.15;;;28.98;57.50
34073;BME280;20346;52.702;16.886;2022-07-22T05:51:30;101070.95;;;29.28;57.34
34073;BME280;20346;52.702;16.886;2022-07-22T05:53:57;101071.45;;;29.58;57.16
34073;BME280;20346;52.702;16.886;2022-07-22T05:56:23;101075.05;;;29.82;56.92
34073;BME280;20346;52.702;16.886;2022-07-22T05:58:49;101070.07;;;30.08;56.73
34073;BME280;20346;52.702;16.886;2022-07-22T06:01:16;101069.20;;;30.27;56.44
34073;BME280;20346;52.702;16.886;2022-07-22T06:03:42;101069.20;;;30.46;56.13
34073;BME280;20346;52.702;16.886;2022-07-22T06:06:08;101069.98;;;30.62;55.98
34073;BME280;20346;52.702;16.886;2022-07-22T06:08:35;101066.39;;;30.67;55.61
34073;BME280;20346;52.702;16.886;2022-07-22T06:11:02;101060.08;;;30.82;55.50
34073;BME280;20346;52.702;16.886;2022-07-22T06:13:28;101056.52;;;31.01;55.21
34073;BME280;20346;52.702;16.886;2022-07-22T06:15:56;101060.78;;;31.17;55.08
34073;BME280;20346;52.702;16.886;2022-07-22T06:18:23;101056.66;;;31.36;54.79
34073;BME280;20346;52.702;16.886;2022-07-22T06:20:49;101052.10;;;31.46;54.15
34073;BME280;20346;52.702;16.886;2022-07-22T06:23:15;101054.23;;;31.56;54.34
34073;BME280;20346;52.702;16.886;2022-07-22T06:25:41;101048.06;;;31.70;54.13
34073;BME280;20346;52.702;16.886;2022-07-22T06:28:11;101049.19;;;31.85;53.91
34073;BME280;20346;52.702;16.886;2022-07-22T06:30:38;101049.01;;;32.00;53.53
34073;BME280;20346;52.702;16.886;2022-07-22T06:33:04;101044.77;;;32.11;53.32
34073;BME280;20346;52.702;16.886;2022-07-22T06:35:30;101042.85;;;32.21;53.06
34073;BME280;20346;52.702;16.886;2022-07-22T06:37:57;101044.02;;;32.41;52.72
34073;BME280;20346;52.702;16.886;2022-07-22T06:40:23;101040.25;;;32.51;52.59
34073;BME280;20346;52.702;16.886;2022-07-22T06:42:49;101042.60;;;32.76;52.33
34073;BME280;20346;52.702;16.886;2022-07-22T06:45:15;101039.05;;;32.98;52.00
34073;BME280;20346;52.702;16.886;2022-07-22T06:47:41;101037.23;;;33.02;51.69
34073;BME280;20346;52.702;16.886;2022-07-22T06:50:11;101028.70;;;33.07;51.34
34073;BME280;20346;52.702;16.886;2022-07-22T06:52:41;101036.75;;;33.07;51.33
34073;BME280;20346;52.702;16.886;2022-07-22T06:55:09;101033.82;;;33.26;51.09
34073;BME280;20346;52.702;16.886;2022-07-22T06:57:36;101030.05;;;33.49;50.71
34073;BME280;20346;52.702;16.886;2022-07-22T07:00:06;101028.95;;;33.76;50.34
34073;BME280;20346;52.702;16.886;2022-07-22T07:02:34;101029.15;;;33.99;50.10
34073;BME280;20346;52.702;16.886;2022-07-22T07:05:01;101028.83;;;34.18;49.65
34073;BME280;20346;52.702;16.886;2022-07-22T07:07:30;101032.69;;;34.36;49.31
34073;BME280;20346;52.702;16.886;2022-07-22T07:09:56;101031.52;;;34.34;48.95
34073;BME280;20346;52.702;16.886;2022-07-22T07:12:22;101026.98;;;34.35;48.63
34073;BME280;20346;52.702;16.886;2022-07-22T07:14:48;101023.11;;;34.41;48.36
34073;BME280;20346;52.702;16.886;2022-07-22T07:17:15;101024.45;;;34.53;48.29
34073;BME280;20346;52.702;16.886;2022-07-22T07:19:41;101020.02;;;34.85;47.95
34073;BME280;20346;52.702;16.886;2022-07-22T07:22:07;101023.95;;;35.13;47.44
34073;BME280;20346;52.702;16.886;2022-07-22T07:24:34;101020.54;;;35.32;47.39
34073;BME280;20346;52.702;16.886;2022-07-22T07:27:00;101018.98;;;35.64;47.08
34073;BME280;20346;52.702;16.886;2022-07-22T07:29:27;100977.05;;;35.74;46.78
34073;BME280;20346;52.702;16.886;2022-07-22T07:31:53;101023.66;;;36.16;46.38
34073;BME280;20346;52.702;16.886;2022-07-22T07:34:19;101032.58;;;35.94;46.08
34073;BME280;20346;52.702;16.886;2022-07-22T07:36:45;101019.50;;;36.09;45.80
34073;BME280;20346;52.702;16.886;2022-07-22T07:39:12;101021.11;;;36.19;45.38
34073;BME280;20346;52.702;16.886;2022-07-22T07:41:38;101022.16;;;36.13;44.86
34073;BME280;20346;52.702;16.886;2022-07-22T07:44:03;101027.66;;;36.20;44.60
34073;BME280;20346;52.702;16.886;2022-07-22T07:46:31;101022.31;;;36.16;44.34
34073;BME280;20346;52.702;16.886;2022-07-22T07:48:57;101020.08;;;36.01;43.92
34073;BME280;20346;52.702;16.886;2022-07-22T07:51:24;101027.23;;;35.90;43.49
34073;BME280;20346;52.702;16.886;2022-07-22T07:53:50;101020.29;;;35.95;43.12
34073;BME280;20346;52.702;16.886;2022-07-22T07:56:19;101023.19;;;35.90;42.78
34073;BME280;20346;52.702;16.886;2022-07-22T07:58:46;101022.02;;;35.88;42.34
34073;BME280;20346;52.702;16.886;2022-07-22T08:01:12;101019.54;;;36.05;42.16
34073;BME280;20346;52.702;16.886;2022-07-22T08:03:38;101024.49;;;36.17;41.63
34073;BME280;20346;52.702;16.886;2022-07-22T08:06:05;101018.59;;;36.17;41.28
34073;BME280;20346;52.702;16.886;2022-07-22T08:08:31;101026.09;;;36.30;40.86
34073;BME280;20346;52.702;16.886;2022-07-22T08:10:57;101029.12;;;36.31;40.60
34073;BME280;20346;52.702;16.886;2022-07-22T08:13:23;101025.95;;;36.42;40.53
34073;BME280;20346;52.702;16.886;2022-07-22T08:15:56;101025.08;;;36.45;40.06
34073;BME280;20346;52.702;16.886;2022-07-22T08:18:22;101029.14;;;36.60;39.81
34073;BME280;20346;52.702;16.886;2022-07-22T08:20:48;101030.13;;;36.63;39.53
34073;BME280;20346;52.702;16.886;2022-07-22T08:23:14;101037.28;;;36.75;39.44
34073;BME280;20346;52.702;16.886;2022-07-22T08:25:41;101031.66;;;36.81;38.77
34073;BME280;20346;52.702;16.886;2022-07-22T08:28:13;101035.09;;;36.74;38.82
34073;BME280;20346;52.702;16.886;2022-07-22T08:30:40;101029.12;;;36.94;38.33
34073;BME280;20346;52.702;16.886;2022-07-22T08:33:07;101033.43;;;37.13;38.07
34073;BME280;20346;52.702;16.886;2022-07-22T08:35:34;101033.39;;;37.32;37.82
34073;BME280;20346;52.702;16.886;2022-07-22T08:38:00;101033.73;;;37.55;37.45
34073;BME280;20346;52.702;16.886;2022-07-22T08:40:27;101032.08;;;37.64;37.39
34073;BME280;20346;52.702;16.886;2022-07-22T08:42:54;101034.31;;;37.61;37.15
34073;BME280;20346;52.702;16.886;2022-07-22T08:45:20;101031.79;;;37.49;37.22
34073;BME280;20346;52.702;16.886;2022-07-22T08:47:48;101031.67;;;37.57;37.24
34073;BME280;20346;52.702;16.886;2022-07-22T08:50:16;101041.61;;;37.45;37.04
34073;BME280;20346;52.702;16.886;2022-07-22T08:52:42;101034.41;;;37.31;36.83
34073;BME280;20346;52.702;16.886;2022-07-22T08:55:09;101039.08;;;37.23;36.66
34073;BME280;20346;52.702;16.886;2022-07-22T08:57:36;101033.58;;;37.01;36.36
34073;BME280;20346;52.702;16.886;2022-07-22T09:00:12;101038.88;;;36.32;35.80
34073;BME280;20346;52.702;16.886;2022-07-22T09:02:42;101035.88;;;35.85;35.82
34073;BME280;20346;52.702;16.886;2022-07-22T09:05:10;101026.09;;;35.57;35.80
34073;BME280;20346;52.702;16.886;2022-07-22T09:07:42;101030.23;;;35.37;35.75
34073;BME280;20346;52.702;16.886;2022-07-22T09:10:12;101038.25;;;35.10;35.72
34073;BME280;20346;52.702;16.886;2022-07-22T09:12:53;101033.63;;;34.83;35.72
34073;BME280;20346;52.702;16.886;2022-07-22T09:15:32;101037.37;;;34.50;35.63
34073;BME280;20346;52.702;16.886;2022-07-22T09:18:03;101028.83;;;34.10;35.63
34073;BME280;20346;52.702;16.886;2022-07-22T09:20:32;101028.45;;;33.80;35.69
34073;BME280;20346;52.702;16.886;2022-07-22T09:23:00;101017.17;;;33.57;35.67
34073;BME280;20346;52.702;16.886;2022-07-22T09:28:10;101018.01;;;33.11;35.98
34073;BME280;20346;52.702;16.886;2022-07-22T09:30:45;101021.77;;;32.92;35.88
34073;BME280;20346;52.702;16.886;2022-07-22T09:33:10;101016.50;;;32.78;35.87
34073;BME280;20346;52.702;16.886;2022-07-22T09:35:37;101015.05;;;32.62;35.94
34073;BME280;20346;52.702;16.886;2022-07-22T09:38:09;101018.65;;;32.49;35.99
34073;BME280;20346;52.702;16.886;2022-07-22T09:40:39;101017.59;;;32.42;36.03
34073;BME280;20346;52.702;16.886;2022-07-22T09:43:15;101022.41;;;32.38;36.10
34073;BME280;20346;52.702;16.886;2022-07-22T09:45:51;101025.22;;;32.33;36.14
34073;BME280;20346;52.702;16.886;2022-07-22T09:48:21;101024.62;;;32.21;36.19
34073;BME280;20346;52.702;16.886;2022-07-22T09:50:49;101020.42;;;32.01;36.31
34073;BME280;20346;52.702;16.886;2022-07-22T09:53:19;101016.94;;;31.86;36.42
34073;BME280;20346;52.702;16.886;2022-07-22T09:55:46;101019.98;;;31.74;36.54
34073;BME280;20346;52.702;16.886;2022-07-22T09:58:13;101023.53;;;31.60;36.68
34073;BME280;20346;52.702;16.886;2022-07-22T10:00:41;101027.50;;;31.43;36.73
34073;BME280;20346;52.702;16.886;2022-07-22T10:03:21;101019.33;;;31.31;36.86
34073;BME280;20346;52.702;16.886;2022-07-22T10:05:45;101020.17;;;31.31;37.12
34073;BME280;20346;52.702;16.886;2022-07-22T10:08:12;101019.58;;;31.37;37.21
34073;BME280;20346;52.702;16.886;2022-07-22T10:10:39;101013.79;;;31.28;37.15
34073;BME280;20346;52.702;16.886;2022-07-22T10:13:06;101026.95;;;31.12;37.29
34073;BME280;20346;52.702;16.886;2022-07-22T10:15:34;101018.71;;;30.95;37.39
34073;BME280;20346;52.702;16.886;2022-07-22T10:18:13;101016.77;;;30.88;37.62
34073;BME280;20346;52.702;16.886;2022-07-22T10:20:35;101018.20;;;30.82;37.64
34073;BME280;20346;52.702;16.886;2022-07-22T10:23:06;101030.88;;;30.71;37.76
34073;BME280;20346;52.702;16.886;2022-07-22T10:25:59;101026.43;;;30.61;37.82
34073;BME280;20346;52.702;16.886;2022-07-22T10:28:35;101025.22;;;30.50;37.89
34073;BME280;20346;52.702;16.886;2022-07-22T10:31:20;101011.61;;;30.44;38.05
34073;BME280;20346;52.702;16.886;2022-07-22T10:33:52;101005.92;;;30.43;38.13
34073;BME280;20346;52.702;16.886;2022-07-22T10:36:37;101005.92;;;30.43;38.20
34073;BME280;20346;52.702;16.886;2022-07-22T10:39:15;101020.58;;;30.52;38.37
34073;BME280;20346;52.702;16.886;2022-07-22T10:41:44;101003.13;;;30.68;38.43
34073;BME280;20346;52.702;16.886;2022-07-22T10:44:11;101009.08;;;30.75;38.42
34073;BME280;20346;52.702;16.886;2022-07-22T10:46:53;101007.80;;;30.79;38.44
34073;BME280;20346;52.702;16.886;2022-07-22T10:49:23;101008.84;;;30.82;38.44
34073;BME280;20346;52.702;16.886;2022-07-22T10:52:10;101006.87;;;30.84;38.48
34073;BME280;20346;52.702;16.886;2022-07-22T10:57:46;101008.30;;;30.65;38.47
34073;BME280;20346;52.702;16.886;2022-07-22T11:00:14;101007.66;;;30.67;38.54
34073;BME280;20346;52.702;16.886;2022-07-22T11:02:40;101004.32;;;30.69;38.50
34073;BME280;20346;52.702;16.886;2022-07-22T11:05:07;101007.69;;;30.71;38.37
34073;BME280;20346;52.702;16.886;2022-07-22T11:07:40;101011.20;;;30.72;38.40
34073;BME280;20346;52.702;16.886;2022-07-22T11:10:14;100997.91;;;30.76;38.28
34073;BME280;20346;52.702;16.886;2022-07-22T11:12:41;101007.45;;;30.78;38.30
34073;BME280;20346;52.702;16.886;2022-07-22T11:15:08;101004.70;;;30.84;38.22
34073;BME280;20346;52.702;16.886;2022-07-22T11:17:37;100996.14;;;30.80;38.14
34073;BME280;20346;52.702;16.886;2022-07-22T11:20:22;100996.28;;;30.79;38.11
34073;BME280;20346;52.702;16.886;2022-07-22T11:23:07;100995.84;;;30.83;38.16
34073;BME280;20346;52.702;16.886;2022-07-22T11:25:52;100999.32;;;30.93;38.09
34073;BME280;20346;52.702;16.886;2022-07-22T11:28:41;100992.35;;;30.97;38.03
34073;BME280;20346;52.702;16.886;2022-07-22T11:31:27;101001.02;;;31.08;38.00
34073;BME280;20346;52.702;16.886;2022-07-22T11:34:14;101001.94;;;31.13;38.01
34073;BME280;20346;52.702;16.886;2022-07-22T11:37:00;100998.55;;;31.11;38.06
34073;BME280;20346;52.702;16.886;2022-07-22T11:39:28;100995.53;;;31.10;37.99
34073;BME280;20346;52.702;16.886;2022-07-22T11:41:57;100996.59;;;31.13;38.01
34073;BME280;20346;52.702;16.886;2022-07-22T11:44:28;100995.38;;;31.11;37.92
34073;BME280;20346;52.702;16.886;2022-07-22T11:46:56;101002.99;;;31.06;37.95
34073;BME280;20346;52.702;16.886;2022-07-22T11:49:30;101008.08;;;31.00;37.92
34073;BME280;20346;52.702;16.886;2022-07-22T11:52:08;101008.12;;;30.90;37.83
34073;BME280;20346;52.702;16.886;2022-07-22T11:54:37;101004.14;;;30.80;37.83
34073;BME280;20346;52.702;16.886;2022-07-22T11:57:04;101003.69;;;30.71;37.87
34073;BME280;20346;52.702;16.886;2022-07-22T11:59:30;100998.60;;;30.64;37.83
34073;BME280;20346;52.702;16.886;2022-07-22T12:01:56;101001.41;;;30.53;37.88
34073;BME280;20346;52.702;16.886;2022-07-22T12:04:25;100997.27;;;30.54;37.82
34073;BME280;20346;52.702;16.886;2022-07-22T12:06:53;100992.16;;;30.57;37.88
34073;BME280;20346;52.702;16.886;2022-07-22T12:09:29;100990.10;;;30.65;37.82
34073;BME280;20346;52.702;16.886;2022-07-22T12:11:55;100968.63;;;30.70;37.83
34073;BME280;20346;52.702;16.886;2022-07-22T12:14:25;100985.89;;;30.76;37.81
34073;BME280;20346;52.702;16.886;2022-07-22T12:19:35;100983.15;;;30.95;37.86
34073;BME280;20346;52.702;16.886;2022-07-22T12:22:18;100989.49;;;31.08;37.76
34073;BME280;20346;52.702;16.886;2022-07-22T12:24:44;100986.27;;;31.04;37.76
34073;BME280;20346;52.702;16.886;2022-07-22T12:27:16;100985.28;;;31.05;37.82
34073;BME280;20346;52.702;16.886;2022-07-22T12:29:46;100978.00;;;30.98;37.78
34073;BME280;20346;52.702;16.886;2022-07-22T12:35:01;100982.89;;;30.88;37.81
34073;BME280;20346;52.702;16.886;2022-07-22T12:37:41;100982.84;;;30.84;37.80
34073;BME280;20346;52.702;16.886;2022-07-22T12:40:11;100985.45;;;30.80;37.80
34073;BME280;20346;52.702;16.886;2022-07-22T12:43:07;100981.25;;;30.78;37.77
34073;BME280;20346;52.702;16.886;2022-07-22T12:45:28;100987.66;;;30.71;37.73
34073;BME280;20346;52.702;16.886;2022-07-22T12:50:44;100972.20;;;30.61;37.59
34073;BME280;20346;52.702;16.886;2022-07-22T12:53:19;100966.07;;;30.55;37.65
34073;BME280;20346;52.702;16.886;2022-07-22T12:55:48;100962.64;;;30.49;37.67
34073;BME280;20346;52.702;16.886;2022-07-22T12:58:29;100966.23;;;30.44;37.68
34073;BME280;20346;52.702;16.886;2022-07-22T13:00:59;100962.23;;;30.44;37.68